Guelph, Ontario

1:01 AM EDT on August 21, 2014 (GMT -0400)
Guelph - Closer Downtown | Change Station
CLOSE
Current Station
Personal Weather Station
Location: Guelph, ONTARIO
Elevation: 1106 ft
Nearby Weather Stations

Elev 1106 ft 43.54 °N, 80.25 °W | Updated 9 seconds ago

Overcast
Overcast
66.2 °F
Feels Like 66.2 °F
N
0.0
Wind Variable Wind from SW
Gusts 0.0 mph

Today
High -- | Low -- °F
--% Chance of Precip.
Yesterday
High -- | Low -- °F
Precip. -- in
6:32 AM 8:14 PM
Waning Crescent, 17% visible
Pressure 29.93 in
Visibility 3.0 miles
Clouds Overcast 400 ft
Dew Point 66 °F
Humidity 98%
Rainfall -999.00 in
Snow Depth Not available.
UV 0 out of 12
Pollen Not available.
Air Quality Not available.
Flu Activity Not available.
SPECI CYKF 210458Z AUTO 21003KT 150V240 3SM BR OVC004 19/18 A2994 RMK SLP134 DENSITY ALT 1700FT

More Conditions Fewer Conditions

Pressure 29.93 in
Visibility 3.0 miles
Clouds Overcast 400 ft
Dew Point 66 °F
Humidity 98%
Rainfall -999.00 in
Snow Depth Not available.
UV 0 out of 12
Pollen Not available.
Air Quality Not available.
Flu Activity Not available.
SPECI CYKF 210458Z AUTO 21003KT 150V240 3SM BR OVC004 19/18 A2994 RMK SLP134 DENSITY ALT 1700FT

More Conditions Fewer Conditions

10-Day Weather Forecast

Almanac

Astronomy

Aug. 21, 2014 Rise Set
Actual Time 6:32 AM EDT 8:14 PM EDT
Civil Twilight 6:01 AM EDT 8:45 PM EDT
Nautical Twilight 5:24 AM EDT 9:21 PM EDT
Astronomical Twilight 4:44 AM EDT 10:01 PM EDT
Moon 2:58 AM EDT 5:45 PM EDT
Length of Visible Light 14h 43m
Length of Day
13h 42m
Tomorrow will be 2m 45s shorter.
Waning Crescent, 17% of the Moon is Illuminated
Today
Waning Crescent
Aug 25
New
Sep 2
First Quarter
Sep 8
Full
Sep 15
Last Quarter

Yesterday's Extremes

Country Highs Country Lows

Community

WunderPhotos

Upload Photos

1,745,857 photos uploaded!

Nearby

Snow Depth

Not available.

Earthquake Activity

City Distance Mag. Time & Date
No recent earthquake activity has been reported nearby.
Minimum magnitude displayed is 2.5.

Coastal Water Temperatures

Place Temperature
No Stations Reporting

Nearby Weather Stations